Terminal Aerodrome Forecast
Issued by NWS Twin Cities, MN

Home | Current Version | Previous Version | Graphics & Text | Print | Product List | Glossary On
Versions: 1 2 3 4 5 6 7 8 9 10 11 12 13 14 15 16 17 18 19
533
FTUS43 KMPX 220540
TAFSTC
TAF
KSTC 220540Z 2206/2306 00000KT P6SM OVC150
      TEMPO 2206/2208 3/4SM BR
     FM220900 00000KT P6SM VCSH OVC070
     FM221900 34007KT P6SM VCSH OVC070
     FM222300 33007KT P6SM VCSH OVC015=

USA.gov is the U.S. government's official web portal to all federal, state and local government web resources and services.